Ubajara, Brazil
Current Conditions -  °F | °C
As of 12:00 PM on Thursday 23 Oct 2014 (Local Time) from SBPB Reporting Station
Few Clouds Few Clouds  
Wind Chill: 93°   Ceiling: Unl
Heat Index: 103°   Visibility: 6mi
Dew Point: 73°   Wind: 21mph
Humidity: 52%   Direction: 90°E
Pressure: 29.88"   Gusts: NA
Location:  3.85°S, 40.92°W
Report Text: SBPB 231500Z 09018KT 9999 FEW020 34/23 Q1012
Loading
Personal Weather Stations






























Interactive Weather Map
Tropical Storm Tracking
New forecast layout! Learn more

10-Day Weather Forecast

Advertisements
Track Severe Weather on mobile